Time;durP1;ratioP1;P1;durP2;ratioP2;P2;SDS_P1;SDS_P2;PMS_P1;PMS_P2;Temp;Humidity;BMP_temperature;BMP_pressure;BME280_temperature;BME280_humidity;BME280_pressure;Samples;Min_cycle;Max_cycle;Signal;HPM_P1;HPM_P2
2022/01/16 00:01:18;;;;;;;3.92;1.35;;;-0.10;1.00;;;0.97;66.96;99313.06;4983837;28;130256;-74
2022/01/16 00:06:41;;;;;;;4.07;1.50;;;-0.10;1.00;;;0.91;66.83;99315.94;4980302;28;126510;-74
2022/01/16 00:09:11;;;;;;;4.60;1.60;;;0.00;1.00;;;1.06;66.62;99308.88;4983549;28;126422;-74
2022/01/16 00:11:40;;;;;;;4.93;1.60;;;0.00;1.00;;;0.91;66.81;99307.94;4982304;28;130222;-73
2022/01/16 00:14:10;;;;;;;4.28;1.50;;;0.00;1.00;;;1.08;66.72;99300.59;4981438;28;130408;-74
2022/01/16 00:16:39;;;;;;;6.75;1.48;;;0.00;1.00;;;1.07;66.40;99310.47;4982710;28;126354;-74
2022/01/16 00:19:09;;;;;;;4.97;1.45;;;0.00;1.00;;;0.77;66.72;99323.56;4981292;28;126088;-74
2022/01/16 00:21:41;;;;;;;6.38;1.63;;;0.00;1.00;;;0.78;66.36;99333.16;4984094;28;129946;-74
2022/01/16 00:24:12;;;;;;;3.85;1.45;;;0.00;1.00;;;0.75;65.99;99331.81;4981419;28;129805;-74
2022/01/16 00:26:41;;;;;;;4.32;1.38;;;0.00;1.00;;;0.67;66.29;99362.44;4982979;28;124570;-74
2022/01/16 00:29:12;;;;;;;2.35;1.42;;;0.00;1.00;;;0.55;67.22;99345.75;4980641;28;126042;-75
2022/01/16 00:31:42;;;;;;;8.52;1.70;;;0.00;1.00;;;0.83;66.54;99342.03;4980334;28;130397;-75
2022/01/16 00:34:13;;;;;;;4.82;1.60;;;0.00;1.00;;;0.85;65.97;99344.47;4982701;28;130084;-74
2022/01/16 00:36:43;;;;;;;5.18;1.92;;;0.00;1.00;;;0.81;65.98;99338.81;4983963;28;125351;-74
2022/01/16 00:39:12;;;;;;;6.85;1.50;;;0.00;1.00;;;0.87;65.59;99331.66;4980748;28;126173;-74
2022/01/16 00:41:42;;;;;;;4.80;1.23;;;0.00;1.00;;;0.74;65.79;99332.06;4982547;28;130032;-74
2022/01/16 00:44:11;;;;;;;7.07;1.60;;;0.00;1.00;;;0.55;65.82;99351.09;4980449;28;129591;-74
2022/01/16 00:46:39;;;;;;;3.92;1.40;;;0.00;1.00;;;0.52;65.94;99340.91;4982940;28;126007;-74
2022/01/16 00:49:08;;;;;;;9.13;2.10;;;0.00;1.00;;;0.54;66.39;99338.78;4982810;28;125113;-74
2022/01/16 00:51:37;;;;;;;5.57;1.65;;;-0.10;1.00;;;0.54;66.43;99333.44;4965452;28;129589;-74
2022/01/16 00:54:06;;;;;;;4.03;1.45;;;-0.10;1.00;;;0.60;66.49;99328.97;4980042;28;130006;-74
2022/01/16 00:56:35;;;;;;;8.88;2.15;;;-0.10;1.00;;;0.73;65.93;99333.91;4980283;28;127353;-74
2022/01/16 00:59:04;;;;;;;3.90;1.30;;;-0.10;1.00;;;0.71;66.01;99331.47;4980544;28;126570;-74
2022/01/16 01:01:32;;;;;;;6.55;1.88;;;-0.10;1.00;;;0.58;66.45;99355.94;4980518;28;129655;-74
2022/01/16 01:04:00;;;;;;;9.25;2.10;;;-0.10;1.00;;;0.58;66.76;99350.59;4980376;28;129714;-74
2022/01/16 01:06:29;;;;;;;9.57;2.05;;;-0.10;1.00;;;0.84;66.07;99341.00;4982732;28;126722;-74
2022/01/16 01:09:00;;;;;;;4.28;1.30;;;0.00;1.00;;;0.77;65.78;99342.25;4980966;28;125346;-74
2022/01/16 01:11:31;;;;;;;2.50;1.20;;;-0.10;1.00;;;0.83;65.64;99343.91;4982386;28;130627;-74
2022/01/16 01:14:15;;;;;;;5.97;1.50;;;-0.10;1.00;;;1.00;65.34;99319.78;4983206;28;129721;-74
2022/01/16 01:16:54;;;;;;;4.53;1.40;;;-0.10;1.00;;;0.88;65.82;99318.03;4981122;28;125627;-74
2022/01/16 01:19:28;;;;;;;5.78;1.63;;;-0.10;1.00;;;0.92;65.83;99334.41;4982613;28;127261;-74
2022/01/16 01:21:58;;;;;;;3.97;1.50;;;-0.10;1.00;;;1.03;65.87;99309.38;4979633;28;129941;-74
2022/01/16 01:24:29;;;;;;;4.10;1.48;;;-0.10;1.00;;;1.11;65.80;99331.34;4980036;28;130174;-74
2022/01/16 01:27:05;;;;;;;5.00;1.38;;;-0.10;1.00;;;1.15;65.17;99335.13;4980600;28;125546;-74
2022/01/16 01:29:35;;;;;;;5.17;1.40;;;-0.10;1.00;;;1.10;65.63;99335.09;4981400;28;125662;-74
2022/01/16 01:32:05;;;;;;;5.57;2.15;;;-0.10;1.00;;;1.01;66.19;99338.22;4982067;28;129976;-74
2022/01/16 01:34:34;;;;;;;4.53;1.70;;;-0.10;1.00;;;0.96;66.39;99319.47;4982349;28;130423;-74
2022/01/16 01:37:03;;;;;;;3.95;1.58;;;-0.10;1.00;;;0.89;66.97;99308.97;4980040;28;126318;-74
2022/01/16 01:39:40;;;;;;;5.85;1.40;;;-0.10;1.00;;;0.87;66.97;99305.75;4980334;28;125505;-74
2022/01/16 01:42:10;;;;;;;6.80;1.65;;;-0.10;1.00;;;1.10;66.86;99329.75;4979617;28;130118;-75
2022/01/16 01:53:01;;;;;;;6.15;1.65;;;-0.10;1.00;;;0.68;67.69;99318.63;4981715;28;130387;-74
2022/01/16 01:55:30;;;;;;;6.07;1.50;;;-0.10;1.00;;;0.58;66.42;99339.91;4979981;28;130141;-74
2022/01/16 01:58:00;;;;;;;4.28;1.42;;;-0.10;1.00;;;0.56;66.53;99341.19;4979835;28;125480;-74
2022/01/16 02:00:32;;;;;;;5.60;1.65;;;-0.10;1.00;;;0.58;64.90;99329.22;4981564;28;125085;-74
2022/01/16 02:03:15;;;;;;;6.82;1.63;;;-0.10;1.00;;;0.64;65.18;99376.28;4998339;28;129301;-74
2022/01/16 02:05:45;;;;;;;5.18;1.70;;;0.00;1.00;;;0.66;64.43;99303.94;4982736;28;128452;-74
2022/01/16 02:08:14;;;;;;;6.03;1.63;;;0.00;1.00;;;0.65;64.45;99239.00;4986035;28;125865;-74
2022/01/16 02:10:43;;;;;;;3.47;1.30;;;-0.10;1.00;;;0.69;64.86;99277.53;4983861;28;125692;-74
2022/01/16 02:13:21;;;;;;;5.80;1.65;;;-0.10;1.00;;;0.48;65.42;99270.34;4983817;28;132619;-74
2022/01/16 02:30:31;;;;;;;6.85;2.20;;;-0.10;1.00;;;0.45;66.60;99334.94;4982779;28;125841;-74
2022/01/16 02:33:23;;;;;;;6.15;1.75;;;-0.10;1.00;;;0.42;66.81;99346.09;4986444;28;125799;-74
2022/01/16 02:35:55;;;;;;;7.53;2.67;;;-0.20;1.00;;;0.49;66.39;99352.88;4985427;28;129788;-73
2022/01/16 02:38:23;;;;;;;8.15;2.28;;;-0.20;1.00;;;0.74;65.75;99343.53;4982692;28;130342;-74
2022/01/16 02:40:59;;;;;;;5.30;2.00;;;-0.20;1.00;;;0.91;65.06;99306.06;4984222;28;126789;-75
2022/01/16 02:43:32;;;;;;;7.15;1.58;;;-0.20;1.00;;;0.83;64.80;99319.88;4982759;28;126231;-74
2022/01/16 02:46:35;;;;;;;4.05;1.50;;;-0.30;1.00;;;0.77;64.63;99321.69;4982773;28;130523;-74
2022/01/16 02:49:00;;;;;;;5.15;1.30;;;-0.30;1.00;;;0.64;64.54;99327.41;4985605;28;129667;-74
2022/01/16 02:51:30;;;;;;;4.82;1.42;;;-0.30;1.00;;;0.50;65.22;99333.13;4984351;28;125053;-74
2022/01/16 02:54:01;;;;;;;3.90;1.65;;;-0.40;1.00;;;0.55;65.39;99340.41;4984199;28;125431;-74
2022/01/16 02:56:34;;;;;;;6.60;1.58;;;-0.40;1.00;;;0.43;65.73;99326.38;4997907;28;129946;-74
2022/01/16 02:59:03;;;;;;;4.68;1.77;;;-0.50;1.00;;;0.48;65.80;99339.75;5000611;28;130029;-74
2022/01/16 03:01:33;;;;;;;3.60;1.30;;;-0.50;1.00;;;0.30;65.96;99338.22;4982428;28;125722;-74
2022/01/16 03:04:03;;;;;;;4.05;1.55;;;-0.60;1.00;;;0.25;65.97;99335.47;4982412;28;126011;-75
2022/01/16 03:06:31;;;;;;;4.57;1.58;;;-0.60;1.00;;;0.10;66.25;99336.09;4981614;28;130267;-74
2022/01/16 03:09:01;;;;;;;3.65;1.40;;;-0.70;1.00;;;0.17;65.83;99340.19;4982252;28;130390;-74
2022/01/16 03:11:36;;;;;;;6.25;1.30;;;-0.70;1.00;;;0.25;66.24;99351.47;4982510;28;125773;-74
2022/01/16 03:14:06;;;;;;;2.78;1.33;;;-0.80;1.00;;;0.31;65.85;99356.66;4983821;28;125525;-74
2022/01/16 03:16:35;;;;;;;3.83;1.55;;;-0.80;1.00;;;0.24;66.71;99334.69;5000678;28;129928;-74
2022/01/16 03:21:57;;;;;;;5.43;1.63;;;-0.80;1.00;;;0.23;66.78;99343.72;4983288;28;126245;-75
2022/01/16 03:24:29;;;;;;;2.67;1.40;;;-0.80;1.00;;;0.11;67.42;99345.69;4982501;28;126083;-74
2022/01/16 03:27:02;;;;;;;6.28;1.65;;;-0.80;1.00;;;0.09;67.58;99358.47;4981944;28;129822;-74
2022/01/16 03:29:32;;;;;;;4.47;1.58;;;-0.70;1.00;;;0.08;67.91;99343.53;4981980;28;129836;-74
2022/01/16 03:32:03;;;;;;;2.67;1.38;;;-0.80;1.00;;;-0.15;68.44;99342.69;4983502;28;125208;-75
2022/01/16 03:34:32;;;;;;;5.50;1.92;;;-0.80;1.00;;;-0.09;69.28;99346.25;4983859;28;125472;-75
2022/01/16 03:37:01;;;;;;;8.13;1.40;;;-0.70;1.00;;;-0.13;68.54;99356.56;4980172;28;129369;-75
2022/01/16 03:39:30;;;;;;;8.50;1.83;;;-0.70;1.00;;;-0.11;68.85;99338.47;4965337;28;129134;-75
2022/01/16 03:42:01;;;;;;;4.05;1.67;;;-0.70;1.00;;;-0.22;69.42;99347.38;4984434;28;126318;-75
2022/01/16 03:44:30;;;;;;;3.92;1.52;;;-0.70;1.00;;;-0.20;69.55;99339.94;4982064;28;125373;-74
2022/01/16 03:46:59;;;;;;;3.13;1.50;;;-0.70;1.00;;;-0.38;70.38;99344.47;4983630;28;129790;-75
2022/01/16 03:49:31;;;;;;;4.10;1.70;;;-0.70;1.00;;;-0.32;70.59;99337.34;4983865;28;129665;-75
2022/01/16 03:52:01;;;;;;;5.90;1.90;;;-0.80;1.00;;;-0.25;70.55;99329.19;4999984;28;125624;-75
2022/01/16 03:54:31;;;;;;;10.30;1.65;;;-0.80;1.00;;;-0.21;70.67;99339.13;4984750;28;125581;-75
2022/01/16 03:57:01;;;;;;;5.15;1.98;;;-0.70;1.00;;;-0.24;71.41;99338.81;4981368;28;130352;-76
2022/01/16 03:59:30;;;;;;;3.70;1.63;;;-0.80;1.00;;;-0.22;71.30;99342.84;4981452;28;129812;-75
2022/01/16 04:01:59;;;;;;;4.85;2.03;;;-0.80;1.00;;;-0.37;71.53;99335.44;4981469;28;126339;-75
2022/01/16 04:04:27;;;;;;;7.82;2.65;;;-0.70;1.00;;;-0.30;71.51;99345.91;4983705;28;126294;-75
2022/01/16 04:06:56;;;;;;;6.57;1.75;;;-0.70;1.00;;;-0.19;71.57;99341.53;4981230;28;129986;-75
2022/01/16 04:09:24;;;;;;;5.45;1.77;;;-0.70;1.00;;;-0.26;72.11;99330.25;4981403;28;130320;-74
2022/01/16 04:11:56;;;;;;;5.60;1.60;;;-0.70;1.00;;;-0.14;71.35;99328.31;4981457;28;125239;-74
2022/01/16 04:15:31;;;;;;;4.63;1.75;;;-0.70;1.00;;;0.00;70.81;99328.75;4982179;28;125423;-75
2022/01/16 04:17:19;;;;;;;5.90;2.13;;;-0.60;1.00;;;-0.22;71.60;99331.38;4983196;28;129739;-75
2022/01/16 04:19:48;;;;;;;6.43;1.65;;;-0.60;1.00;;;-0.24;71.98;99328.16;4980069;28;130145;-74
2022/01/16 04:22:18;;;;;;;5.53;1.83;;;-0.70;1.00;;;-0.21;71.49;99322.31;4981329;28;126399;-74
2022/01/16 04:24:48;;;;;;;6.22;1.98;;;-0.70;1.00;;;-0.30;71.76;99323.78;4979864;28;125973;-74
2022/01/16 04:27:17;;;;;;;3.40;1.55;;;-0.70;1.00;;;-0.22;71.90;99331.38;4980912;28;129688;-74
2022/01/16 04:29:48;;;;;;;7.47;1.83;;;-0.80;1.00;;;-0.23;72.20;99325.22;4980592;28;129541;-74
2022/01/16 04:32:17;;;;;;;3.83;1.42;;;-0.80;1.00;;;-0.20;72.05;99330.06;4982618;28;125597;-74
2022/01/16 04:34:45;;;;;;;4.55;1.85;;;-0.80;1.00;;;-0.19;72.30;99330.88;4982635;28;126913;-74
2022/01/16 04:37:14;;;;;;;6.85;1.98;;;-0.80;1.00;;;-0.02;71.16;99331.69;4982530;28;129906;-74
2022/01/16 04:39:49;;;;;;;5.05;1.73;;;-0.70;1.00;;;-0.01;71.27;99333.28;4983422;28;129546;-74
2022/01/16 04:45:06;;;;;;;6.53;1.83;;;-0.70;1.00;;;-0.04;71.33;99327.63;4981530;28;126230;-75
2022/01/16 04:47:34;;;;;;;4.60;1.67;;;-0.70;1.00;;;-0.12;72.13;99328.84;4998880;28;129356;-74
2022/01/16 04:50:04;;;;;;;3.10;1.48;;;-0.70;1.00;;;-0.15;71.72;99325.88;4980617;28;129851;-74
2022/01/16 04:52:32;;;;;;;3.40;1.88;;;-0.70;1.00;;;-0.10;71.98;99332.06;4980610;28;126065;-75
2022/01/16 04:55:02;;;;;;;3.05;1.33;;;-0.70;1.00;;;-0.08;71.63;99329.16;4981110;28;125430;-74
2022/01/16 04:57:31;;;;;;;7.10;2.10;;;-0.70;1.00;;;0.00;71.39;99350.13;4980551;28;130164;-75
2022/01/16 04:59:59;;;;;;;4.00;2.00;;;-0.70;1.00;;;-0.12;72.21;99347.53;4999132;28;128846;-74
2022/01/16 05:02:30;;;;;;;2.78;1.13;;;-0.70;1.00;;;-0.12;72.60;99341.41;4980674;28;125698;-74
2022/01/16 05:04:59;;;;;;;7.05;1.55;;;-0.80;1.00;;;-0.23;72.90;99345.78;4981035;28;125388;-74
2022/01/16 05:07:27;;;;;;;2.95;1.50;;;-0.70;1.00;;;-0.24;73.10;99349.47;4983002;28;130278;-74
2022/01/16 05:09:55;;;;;;;5.90;1.83;;;-0.80;1.00;;;-0.14;72.48;99346.97;4981068;28;129705;-75
2022/01/16 05:12:30;;;;;;;3.80;1.48;;;-0.80;1.00;;;0.02;72.50;99353.34;4978790;28;126477;-75
2022/01/16 05:17:46;;;;;;;7.05;1.70;;;-0.80;1.00;;;-0.06;73.09;99351.09;4982786;28;129919;-74
2022/01/16 05:20:15;;;;;;;6.00;1.58;;;-0.80;1.00;;;0.01;72.69;99350.91;4980788;28;129705;-75
2022/01/16 05:22:44;;;;;;;9.02;1.70;;;-0.80;1.00;;;-0.06;73.60;99351.09;4980285;28;125941;-74
2022/01/16 05:25:16;;;;;;;7.57;2.00;;;-0.80;1.00;;;-0.04;73.10;99352.44;4982180;28;125947;-75
2022/01/16 05:27:46;;;;;;;4.20;1.40;;;-0.80;1.00;;;-0.16;72.95;99349.06;4982240;28;130469;-74
2022/01/16 05:30:14;;;;;;;3.65;1.67;;;-0.80;1.00;;;-0.01;72.98;99345.81;4982035;28;128722;-74
2022/01/16 05:32:43;;;;;;;5.45;1.80;;;-0.90;1.00;;;-0.02;72.99;99345.03;4980585;28;125412;-74
2022/01/16 05:35:13;;;;;;;5.47;1.83;;;-0.90;1.00;;;-0.05;73.42;99337.50;4980875;28;124933;-74
2022/01/16 05:37:41;;;;;;;3.88;1.50;;;-0.90;1.00;;;0.04;73.29;99339.75;4979268;28;129978;-74
2022/01/16 05:40:11;;;;;;;9.30;3.05;;;-0.90;1.00;;;0.06;73.19;99337.63;4980773;28;129590;-74
2022/01/16 05:42:39;;;;;;;6.10;2.30;;;-1.00;1.00;;;0.10;72.94;99344.09;4979863;28;125600;-74
2022/01/16 05:45:09;;;;;;;8.50;3.13;;;-1.00;1.00;;;0.10;73.06;99338.75;4965305;28;125410;-74
2022/01/16 05:47:38;;;;;;;8.75;2.92;;;-1.00;1.00;;;0.10;73.20;99341.44;4979846;28;129516;-75
2022/01/16 05:50:08;;;;;;;5.97;2.50;;;-1.00;1.00;;;-0.03;73.56;99345.25;4981727;28;129875;-74
2022/01/16 05:52:38;;;;;;;12.77;3.72;;;-1.00;1.00;;;0.13;73.55;99338.28;4979832;28;125553;-75
2022/01/16 05:55:08;;;;;;;6.82;2.30;;;-1.00;1.00;;;0.02;73.85;99331.97;4998450;28;124300;-75
2022/01/16 05:57:38;;;;;;;9.13;2.15;;;-1.00;1.00;;;-0.04;74.26;99325.75;4978157;28;129997;-74
2022/01/16 06:00:10;;;;;;;4.05;1.70;;;-0.90;1.00;;;-0.08;74.52;99316.66;4980210;28;129332;-75
2022/01/16 06:02:39;;;;;;;6.38;2.40;;;-1.00;1.00;;;-0.08;74.40;99313.16;4997875;28;126592;-74
2022/01/16 06:05:10;;;;;;;8.70;2.60;;;-1.00;1.00;;;-0.10;75.00;99313.41;4981533;28;126406;-74
2022/01/16 06:07:45;;;;;;;8.23;2.60;;;-1.00;1.00;;;-0.13;74.94;99313.88;4998024;28;129545;-74
2022/01/16 06:10:14;;;;;;;9.00;2.80;;;-1.00;1.00;;;-0.15;75.79;99308.00;4979432;28;129815;-75
2022/01/16 06:12:42;;;;;;;5.97;1.98;;;-0.90;1.00;;;-0.38;76.59;99307.13;4981443;28;125885;-75
2022/01/16 06:15:12;;;;;;;6.78;2.58;;;-1.00;1.00;;;-0.37;76.77;99306.09;4964976;28;124484;-74
2022/01/16 06:17:40;;;;;;;4.40;2.10;;;-1.00;1.00;;;-0.50;77.51;99302.94;4964084;28;128790;-75
2022/01/16 06:20:09;;;;;;;9.52;2.72;;;-1.00;1.00;;;-0.38;77.42;99299.13;4981919;28;130004;-75
2022/01/16 06:22:39;;;;;;;8.00;2.50;;;-1.00;1.00;;;-0.29;77.54;99304.06;4980540;28;124698;-74
2022/01/16 06:25:09;;;;;;;10.43;3.90;;;-1.00;1.00;;;-0.14;77.31;99295.47;4980017;28;125925;-74
2022/01/16 06:27:38;;;;;;;8.35;2.30;;;-1.00;1.00;;;-0.02;76.80;99289.00;4977530;28;129912;-74
2022/01/16 06:30:11;;;;;;;10.02;3.03;;;-1.00;1.00;;;-0.02;76.86;99294.31;4979713;28;128775;-74
2022/01/16 06:32:41;;;;;;;7.97;2.00;;;-1.00;1.00;;;-0.11;77.34;99308.31;4979326;28;124783;-74
2022/01/16 06:35:13;;;;;;;8.10;3.63;;;-1.00;1.00;;;-0.21;78.21;99306.31;4976477;28;124449;-75
2022/01/16 06:37:45;;;;;;;6.43;2.47;;;-1.10;1.00;;;-0.09;77.93;99299.03;4991161;28;130170;-74
2022/01/16 06:40:15;;;;;;;12.07;3.50;;;-1.00;1.00;;;-0.18;78.45;99305.81;4974084;28;129706;-75
2022/01/16 06:42:43;;;;;;;10.65;3.55;;;-1.10;1.00;;;-0.37;79.90;99306.09;4979626;28;124465;-74
2022/01/16 06:45:13;;;;;;;9.13;3.28;;;-1.00;1.80;;;-0.18;79.85;99300.50;4978217;28;125313;-73
2022/01/16 06:47:41;;;;;;;7.80;3.08;;;-1.10;2.70;;;-0.31;80.63;99316.81;4977846;28;129868;-73
2022/01/16 06:50:12;;;;;;;12.27;4.75;;;-1.10;3.30;;;-0.17;79.99;99307.44;4973741;28;129725;-73
2022/01/16 06:52:40;;;;;;;8.18;3.92;;;-1.00;3.90;;;-0.06;80.13;99306.53;4979826;28;125212;-73
2022/01/16 06:55:12;;;;;;;10.57;3.15;;;-1.00;4.50;;;-0.29;81.12;99314.75;4982573;28;126697;-73
2022/01/16 06:57:41;;;;;;;9.88;3.33;;;-1.00;5.10;;;-0.22;81.15;99320.69;4983083;28;128512;-73
2022/01/16 07:00:11;;;;;;;7.40;2.78;;;-1.00;6.20;;;-0.12;81.06;99315.50;4991812;28;129260;-74
2022/01/16 07:02:40;;;;;;;9.25;2.85;;;-1.00;6.70;;;0.03;80.37;99316.78;4982549;28;124644;-73
2022/01/16 07:05:10;;;;;;;5.57;2.60;;;-1.00;6.80;;;-0.04;80.71;99307.09;4983025;28;125466;-74
2022/01/16 07:07:38;;;;;;;11.55;3.00;;;-1.00;6.80;;;-0.28;81.71;99305.66;4981977;28;130495;-74
2022/01/16 07:10:10;;;;;;;6.70;2.45;;;-1.00;7.50;;;-0.11;81.54;99298.47;4982442;28;129389;-73
2022/01/16 07:12:39;;;;;;;7.65;3.00;;;-1.00;8.10;;;-0.05;81.35;99294.00;4982105;28;125400;-73
2022/01/16 07:15:08;;;;;;;6.53;2.78;;;-1.00;9.30;;;0.01;81.27;99287.66;4981576;28;125282;-73
2022/01/16 07:17:38;;;;;;;6.80;2.63;;;-1.10;10.60;;;-0.07;81.82;99280.91;4982528;28;129209;-75
2022/01/16 07:20:09;;;;;;;9.02;3.67;;;-1.10;11.70;;;-0.11;82.14;99295.81;4983141;28;129795;-76
2022/01/16 07:22:38;;;;;;;11.70;3.05;;;-1.10;13.40;;;-0.01;81.69;99295.13;5016180;28;126014;-75
2022/01/16 07:25:10;;;;;;;8.13;2.90;;;-1.10;14.20;;;-0.27;83.03;99291.28;4980125;28;125184;-75
2022/01/16 07:27:38;;;;;;;10.32;3.13;;;-1.10;14.30;;;-0.15;82.81;99294.66;5015739;28;129889;-75
2022/01/16 07:30:09;;;;;;;16.45;4.18;;;-1.10;15.50;;;-0.23;83.05;99282.56;4966123;28;128763;-75
2022/01/16 07:32:37;;;;;;;7.88;3.10;;;-1.20;16.60;;;-0.12;82.88;99286.19;4982612;28;125786;-76
2022/01/16 07:35:07;;;;;;;7.78;2.50;;;-1.20;17.40;;;-0.22;83.57;99288.69;5016479;28;125161;-75
2022/01/16 07:37:35;;;;;;;10.27;3.30;;;-1.20;18.80;;;-0.06;83.30;99293.19;5015868;28;129539;-76
2022/01/16 07:40:05;;;;;;;10.48;3.45;;;-1.20;18.90;;;-0.29;83.83;99288.06;4998927;28;129018;-75
2022/01/16 07:42:35;;;;;;;11.88;2.92;;;-1.20;19.60;;;-0.25;84.42;99294.50;4980141;28;126451;-76
2022/01/16 07:45:04;;;;;;;9.02;2.88;;;-1.20;20.10;;;-0.22;84.36;99296.69;4980027;28;126471;-75
2022/01/16 07:47:32;;;;;;;6.80;2.83;;;-1.10;20.50;;;0.00;83.74;99291.41;4982038;28;128948;-75
2022/01/16 07:50:01;;;;;;;12.63;3.92;;;-1.10;21.30;;;0.08;83.51;99290.16;4982082;28;128564;-75
2022/01/16 07:52:30;;;;;;;9.65;3.63;;;-1.00;19.80;;;0.23;83.00;99301.03;4982962;28;125925;-76
2022/01/16 07:54:59;;;;;;;10.70;3.22;;;-0.90;19.40;;;0.44;82.25;99301.28;5015302;28;125278;-76
2022/01/16 07:57:28;;;;;;;6.50;3.30;;;-0.80;17.60;;;0.80;80.73;99296.34;4980682;28;130180;-74
2022/01/16 07:59:58;;;;;;;9.80;3.40;;;-0.60;16.10;;;1.28;79.59;99294.63;4984062;28;127764;-76
2022/01/16 08:02:26;;;;;;;7.38;2.72;;;-0.40;15.90;;;1.58;78.05;99283.34;4966054;28;124713;-76
2022/01/16 08:04:55;;;;;;;7.53;2.47;;;-0.30;12.50;;;1.57;76.90;99286.28;4980087;28;125702;-81
2022/01/16 08:07:25;;;;;;;9.00;2.78;;;-0.20;9.00;;;1.25;78.78;99292.47;4981559;28;129298;-76
2022/01/16 08:09:53;;;;;;;9.10;2.40;;;-0.30;11.80;;;1.32;78.13;99295.72;4980510;28;129690;-76
2022/01/16 08:12:22;;;;;;;5.78;2.78;;;-0.30;8.60;;;1.35;78.19;99284.50;4982175;28;124598;-75
2022/01/16 08:14:50;;;;;;;10.90;2.70;;;-0.20;10.00;;;1.10;79.26;99297.69;4977004;28;124679;-76
2022/01/16 08:17:20;;;;;;;7.07;2.80;;;-0.30;10.70;;;0.99;80.02;99302.13;4979395;28;130307;-76
2022/01/16 08:19:49;;;;;;;9.23;2.55;;;-0.40;11.90;;;1.08;79.55;99301.41;4980020;28;129433;-76
2022/01/16 08:22:17;;;;;;;6.65;3.47;;;-0.40;12.20;;;1.54;78.62;99302.84;4981503;28;125415;-76
2022/01/16 08:24:46;;;;;;;7.05;2.95;;;-0.20;12.40;;;1.59;77.55;99300.19;4982062;28;124361;-76
2022/01/16 08:27:15;;;;;;;8.80;2.88;;;-0.10;8.50;;;1.43;78.30;99294.75;4979243;28;129549;-76
2022/01/16 08:29:43;;;;;;;8.80;3.35;;;-0.20;10.40;;;1.62;78.07;99299.69;4981290;28;129318;-76
2022/01/16 08:32:13;;;;;;;10.63;3.53;;;-0.10;11.70;;;1.84;77.16;99296.06;4978448;28;126332;-75
2022/01/16 08:34:43;;;;;;;12.55;4.07;;;0.10;11.20;;;1.97;76.51;99300.97;4980099;28;125996;-75
2022/01/16 08:37:12;;;;;;;8.10;2.80;;;0.10;7.80;;;1.90;76.72;99300.38;4979266;28;129754;-76
2022/01/16 08:39:41;;;;;;;8.45;2.83;;;0.10;8.40;;;1.98;76.07;99307.94;4980992;28;129672;-75
2022/01/16 08:42:12;;;;;;;7.80;2.90;;;0.00;9.10;;;1.29;79.22;99301.56;4977708;28;126155;-76
2022/01/16 08:44:42;;;;;;;12.80;2.92;;;-0.20;12.00;;;1.29;79.42;99304.25;4977956;28;126056;-76
2022/01/16 08:47:11;;;;;;;7.80;2.42;;;-0.20;13.30;;;1.47;79.14;99307.63;4977772;28;129915;-76
2022/01/16 08:49:45;;;;;;;9.18;2.53;;;-0.20;14.20;;;1.39;79.43;99290.97;4978856;28;129099;-75
2022/01/16 08:52:14;;;;;;;8.20;2.88;;;-0.20;15.80;;;1.67;79.25;99289.03;4982001;28;125839;-75
2022/01/16 08:54:43;;;;;;;8.63;2.95;;;-0.10;15.40;;;1.56;79.32;99298.06;4980480;28;124749;-74
2022/01/16 08:57:12;;;;;;;9.15;2.92;;;-0.10;15.60;;;1.44;79.62;99291.00;4977281;28;130121;-75
2022/01/16 08:59:40;;;;;;;8.55;2.58;;;-0.10;15.10;;;1.81;78.91;99278.69;4980817;28;129626;-75
2022/01/16 09:02:09;;;;;;;6.05;2.20;;;0.00;16.40;;;2.05;77.98;99275.59;4979358;28;125662;-75
2022/01/16 09:04:38;;;;;;;11.93;3.00;;;0.20;14.30;;;1.92;78.06;99276.88;4979285;28;125890;-75
2022/01/16 09:07:09;;;;;;;6.82;2.70;;;0.10;13.40;;;1.79;78.31;99270.91;4981000;28;128606;-75
2022/01/16 09:09:38;;;;;;;9.18;3.00;;;0.10;12.00;;;2.03;77.49;99267.03;4997232;28;129781;-77
2022/01/16 09:12:08;;;;;;;7.50;2.80;;;0.10;12.30;;;2.01;77.20;99267.28;4978864;28;125576;-75
2022/01/16 09:14:37;;;;;;;7.90;2.90;;;0.10;12.50;;;1.90;78.50;99269.09;4964059;28;124669;-75
2022/01/16 09:17:06;;;;;;;5.57;2.38;;;0.10;16.40;;;2.33;77.36;99277.03;4977844;28;129896;-75
2022/01/16 09:19:35;;;;;;;6.45;2.53;;;0.30;15.40;;;2.51;75.71;99268.53;4981248;28;130744;-75
2022/01/16 09:22:07;;;;;;;7.10;3.17;;;0.40;9.70;;;2.55;75.76;99255.41;5000763;28;126093;-75
2022/01/16 09:24:36;;;;;;;10.00;3.67;;;0.50;10.80;;;2.66;75.27;99264.28;4981104;28;126016;-75
2022/01/16 09:27:05;;;;;;;6.22;2.33;;;0.60;9.60;;;2.66;75.30;99265.06;4959301;28;129961;-75
2022/01/16 09:29:33;;;;;;;7.47;2.40;;;0.60;8.90;;;2.48;76.42;99253.00;4959288;28;129384;-74
2022/01/16 09:32:02;;;;;;;6.40;2.75;;;0.50;10.00;;;2.37;77.21;99255.88;4958921;28;126204;-76
2022/01/16 09:34:31;;;;;;;6.72;2.60;;;0.40;12.90;;;2.56;76.46;99254.34;4993897;28;125261;-76
2022/01/16 09:37:02;;;;;;;11.18;3.70;;;0.50;12.70;;;2.46;76.08;99265.84;4960321;28;130549;-75
2022/01/16 09:39:32;;;;;;;7.68;3.33;;;0.50;9.90;;;2.22;77.89;99254.78;4959516;28;129702;-76
2022/01/16 09:42:03;;;;;;;9.70;4.07;;;0.40;14.30;;;2.31;77.75;99250.53;4968900;28;126203;-75
2022/01/16 09:44:33;;;;;;;12.43;4.13;;;0.40;14.60;;;2.74;76.54;99254.91;4978859;28;125744;-75
2022/01/16 09:47:02;;;;;;;6.45;3.08;;;0.60;13.10;;;3.04;74.93;99248.78;4977991;28;130562;-74
2022/01/16 09:49:31;;;;;;;8.85;2.67;;;0.80;11.70;;;2.93;75.41;99228.41;4978382;28;130270;-74
2022/01/16 09:51:59;;;;;;;11.55;3.92;;;0.80;10.80;;;2.95;74.52;99221.72;4980633;28;125562;-75
2022/01/16 09:54:29;;;;;;;7.28;2.92;;;0.70;8.00;;;3.19;74.31;99216.59;4977863;28;125199;-74
2022/01/16 09:56:59;;;;;;;7.60;2.90;;;0.90;8.80;;;3.16;74.06;99214.44;4980273;28;129843;-74
2022/01/16 09:59:30;;;;;;;10.05;2.78;;;1.00;8.30;;;3.31;73.29;99220.91;4983053;28;102668;-74
2022/01/16 10:01:58;;;;;;;9.05;2.80;;;1.10;5.30;;;3.63;72.18;99223.25;4980739;28;125861;-75
2022/01/16 10:04:32;;;;;;;7.65;2.22;;;1.20;1.70;;;3.41;72.38;99210.13;4980492;28;126338;-74
2022/01/16 10:07:04;;;;;;;7.15;2.50;;;1.10;2.30;;;3.34;72.69;99209.63;4980233;28;128841;-74
2022/01/16 10:09:36;;;;;;;8.52;2.88;;;1.10;1.40;;;3.32;72.63;99204.53;4981004;28;129637;-74
2022/01/16 10:12:16;;;;;;;6.50;2.60;;;1.10;2.50;;;3.15;73.04;99206.69;4978171;28;126388;-75
2022/01/16 10:14:47;;;;;;;10.38;2.72;;;1.00;1.40;;;3.35;72.83;99187.06;4978445;28;125815;-75
2022/01/16 10:17:19;;;;;;;8.30;2.55;;;1.00;4.00;;;3.47;72.34;99187.59;4979715;28;130038;-75
2022/01/16 10:19:59;;;;;;;7.78;2.97;;;1.10;3.20;;;3.77;71.54;99177.84;4979349;28;129212;-74
2022/01/16 10:22:39;;;;;;;10.15;2.67;;;1.20;4.10;;;3.24;72.96;99183.59;4979185;28;125397;-74
2022/01/16 10:25:10;;;;;;;4.95;2.50;;;1.10;3.50;;;3.55;72.54;99184.38;4979538;28;126429;-74
2022/01/16 10:27:42;;;;;;;5.90;3.05;;;1.20;3.40;;;3.85;72.05;99169.22;4982782;28;129762;-74
2022/01/16 10:30:14;;;;;;;7.50;2.58;;;1.60;2.50;;;4.12;70.95;99170.72;4980970;28;129870;-75
2022/01/16 10:32:45;;;;;;;8.90;3.03;;;1.70;1.00;;;4.29;69.38;99176.53;4981009;28;125307;-75
2022/01/16 10:35:17;;;;;;;8.20;3.17;;;1.80;1.00;;;4.05;68.84;99170.22;4981279;28;125345;-75
2022/01/16 10:37:48;;;;;;;7.03;2.40;;;1.60;1.00;;;3.66;69.60;99168.22;4980983;28;129898;-75
2022/01/16 10:40:19;;;;;;;7.88;2.67;;;1.40;1.00;;;3.46;71.02;99161.84;4981448;28;130548;-76
2022/01/16 10:42:57;;;;;;;7.95;2.20;;;1.40;1.00;;;3.23;71.61;99166.72;4981665;28;125416;-74
2022/01/16 10:45:29;;;;;;;8.85;2.50;;;1.30;1.00;;;3.31;71.74;99157.31;4979412;28;125458;-75
2022/01/16 10:48:00;;;;;;;6.85;2.35;;;1.30;1.00;;;3.69;70.95;99163.09;4982940;28;130636;-75
2022/01/16 10:50:35;;;;;;;8.88;2.50;;;1.60;1.00;;;3.82;69.26;99156.38;4981037;28;129761;-75
2022/01/16 10:53:06;;;;;;;5.70;1.90;;;1.70;1.00;;;3.70;69.04;99148.63;4981265;28;125799;-75
2022/01/16 10:55:40;;;;;;;7.65;2.20;;;1.60;1.00;;;3.79;68.82;99146.19;4981371;28;126391;-75
2022/01/16 10:58:14;;;;;;;7.00;2.22;;;1.70;1.00;;;3.31;70.66;99146.59;4981165;28;129867;-74
2022/01/16 11:00:51;;;;;;;6.93;2.80;;;1.40;1.00;;;3.76;69.05;99147.50;4981060;28;129778;-75
2022/01/16 11:03:21;;;;;;;6.18;2.17;;;1.70;1.00;;;3.92;67.70;99145.56;4982618;28;126817;-75
2022/01/16 11:05:51;;;;;;;6.88;2.25;;;1.80;1.00;;;4.00;68.33;99135.34;4981060;28;126191;-74
2022/01/16 11:08:23;;;;;;;5.72;2.30;;;1.90;1.00;;;4.30;66.85;99139.72;4979712;28;129933;-75
2022/01/16 11:10:56;;;;;;;6.85;2.75;;;2.00;1.00;;;4.46;67.59;99140.44;4996351;28;130347;-75